Time;durP1;ratioP1;P1;durP2;ratioP2;P2;SDS_P1;SDS_P2;PMS_P1;PMS_P2;Temp;Humidity;BMP_temperature;BMP_pressure;BME280_temperature;BME280_humidity;BME280_pressure;Samples;Min_cycle;Max_cycle;Signal;HPM_P1;HPM_P2
2022/11/24 00:01:04;;;;;;;9.27;3.05;;;7.80;99.90;;;;;;6001426;23;20642;-74
2022/11/24 00:03:33;;;;;;;9.18;2.88;;;7.70;99.90;;;;;;6002687;23;20202;-74
2022/11/24 00:06:06;;;;;;;8.65;3.35;;;7.60;99.90;;;;;;6003436;23;20234;-74
2022/11/24 00:08:33;;;;;;;7.35;3.00;;;7.60;99.90;;;;;;6003095;23;20598;-74
2022/11/24 00:11:05;;;;;;;9.30;4.25;;;7.50;99.90;;;;;;6003283;23;20205;-74
2022/11/24 00:13:33;;;;;;;7.97;3.15;;;7.40;99.90;;;;;;6001243;23;20238;-74
2022/11/24 00:16:09;;;;;;;7.82;3.10;;;7.30;99.90;;;;;;6000630;23;20221;-74
2022/11/24 00:18:38;;;;;;;6.53;2.40;;;7.20;99.90;;;;;;5995658;23;20193;-74
2022/11/24 00:21:06;;;;;;;6.32;2.80;;;7.20;99.90;;;;;;6003265;23;20206;-74
2022/11/24 00:23:33;;;;;;;6.72;3.00;;;7.10;99.90;;;;;;6002172;23;20238;-74
2022/11/24 00:26:05;;;;;;;6.15;2.10;;;7.10;99.90;;;;;;6003101;23;20281;-74
2022/11/24 00:28:33;;;;;;;8.93;3.85;;;7.10;99.90;;;;;;6003360;23;20665;-74
2022/11/24 00:31:00;;;;;;;8.38;2.80;;;7.10;99.90;;;;;;6000456;23;20490;-74
2022/11/24 00:33:27;;;;;;;6.53;2.85;;;7.10;99.90;;;;;;6001929;23;20203;-74
2022/11/24 00:35:57;;;;;;;8.10;2.70;;;7.10;99.90;;;;;;6004978;23;20221;-75
2022/11/24 00:38:24;;;;;;;7.07;2.65;;;7.10;99.90;;;;;;6003586;23;21358;-74
2022/11/24 00:40:52;;;;;;;6.28;2.70;;;7.10;99.90;;;;;;6002209;23;20201;-74
2022/11/24 00:43:19;;;;;;;6.20;2.40;;;7.10;99.90;;;;;;6003188;23;20691;-74
2022/11/24 00:45:46;;;;;;;11.48;3.25;;;7.10;99.90;;;;;;6002534;23;20621;-74
2022/11/24 00:48:14;;;;;;;7.18;2.55;;;7.10;99.90;;;;;;5999705;23;20201;-74
2022/11/24 00:50:41;;;;;;;7.60;2.80;;;7.10;99.90;;;;;;6004022;23;20230;-74
2022/11/24 00:53:10;;;;;;;6.70;2.80;;;7.10;99.90;;;;;;6002398;23;20220;-74
2022/11/24 00:55:37;;;;;;;6.55;2.90;;;7.10;99.90;;;;;;6003802;23;20218;-74
2022/11/24 00:58:05;;;;;;;6.20;2.38;;;7.10;99.90;;;;;;6004121;23;20206;-75
2022/11/24 01:00:32;;;;;;;9.43;2.65;;;7.00;99.90;;;;;;6001419;23;20249;-74
2022/11/24 01:02:59;;;;;;;6.10;2.22;;;7.00;99.90;;;;;;6000993;23;20205;-74
2022/11/24 01:05:27;;;;;;;10.68;3.17;;;7.00;99.90;;;;;;5998239;23;20492;-74
2022/11/24 01:07:54;;;;;;;7.88;2.70;;;6.90;99.90;;;;;;6003717;23;20210;-74
2022/11/24 01:10:23;;;;;;;6.20;2.60;;;6.90;99.90;;;;;;6000329;23;20190;-74
2022/11/24 01:12:50;;;;;;;10.38;3.97;;;6.90;99.90;;;;;;6003893;23;20273;-74
2022/11/24 01:15:17;;;;;;;8.93;2.30;;;6.90;99.90;;;;;;6003900;23;20305;-74
2022/11/24 01:17:45;;;;;;;6.10;2.42;;;6.80;99.90;;;;;;6003429;23;20292;-74
2022/11/24 01:20:12;;;;;;;6.53;2.30;;;6.70;99.90;;;;;;6002049;23;20567;-74
2022/11/24 01:22:41;;;;;;;8.70;2.80;;;6.70;99.90;;;;;;6000143;23;20252;-73
2022/11/24 01:25:09;;;;;;;8.95;2.65;;;6.70;99.90;;;;;;6002999;23;20273;-74
2022/11/24 01:27:38;;;;;;;6.38;2.80;;;6.70;99.90;;;;;;6003531;23;20224;-74
2022/11/24 01:30:07;;;;;;;6.38;2.58;;;6.60;99.90;;;;;;5995734;23;20505;-75
2022/11/24 01:32:35;;;;;;;7.38;2.63;;;6.60;99.90;;;;;;6003097;23;20640;-74
2022/11/24 01:35:02;;;;;;;9.68;2.50;;;6.60;99.90;;;;;;6001043;23;20640;-74
2022/11/24 01:37:29;;;;;;;15.77;2.80;;;6.60;99.90;;;;;;5998756;23;20198;-74
2022/11/24 01:39:56;;;;;;;13.45;3.10;;;6.70;99.90;;;;;;6002198;23;20249;-74
2022/11/24 01:42:24;;;;;;;6.22;2.50;;;6.70;99.90;;;;;;6003867;23;20617;-74
2022/11/24 01:45:28;;;;;;;7.32;2.60;;;6.70;99.90;;;;;;6001672;23;20201;-74
2022/11/24 01:47:55;;;;;;;9.68;2.67;;;6.80;99.90;;;;;;5987240;23;20194;-74
2022/11/24 01:50:23;;;;;;;6.97;3.00;;;6.70;99.90;;;;;;5995412;23;20289;-74
2022/11/24 01:52:55;;;;;;;9.80;2.83;;;6.80;99.90;;;;;;6002588;23;20195;-74
2022/11/24 01:55:26;;;;;;;10.10;2.58;;;6.80;99.90;;;;;;6003787;23;20198;-74
2022/11/24 01:57:59;;;;;;;9.20;2.20;;;6.80;99.90;;;;;;6002756;23;20217;-74
2022/11/24 02:00:29;;;;;;;4.45;2.00;;;6.90;99.90;;;;;;6001855;23;20654;-74
2022/11/24 02:02:58;;;;;;;7.30;2.15;;;7.00;99.90;;;;;;6003292;23;20208;-74
2022/11/24 02:05:30;;;;;;;5.68;2.40;;;7.10;99.90;;;;;;6003345;23;20198;-74
2022/11/24 02:08:01;;;;;;;9.13;3.80;;;7.10;99.90;;;;;;5999199;23;20235;-74
2022/11/24 02:10:28;;;;;;;6.78;2.63;;;7.10;99.90;;;;;;6002520;23;20194;-74
2022/11/24 02:12:57;;;;;;;6.85;2.65;;;7.10;99.90;;;;;;6000934;23;20657;-75
2022/11/24 02:15:25;;;;;;;6.95;2.40;;;7.20;99.90;;;;;;6003300;23;20627;-75
2022/11/24 02:17:53;;;;;;;5.47;2.45;;;7.20;99.90;;;;;;6001802;23;20229;-74
2022/11/24 02:20:20;;;;;;;8.13;2.60;;;7.30;99.90;;;;;;6003992;23;20277;-75
2022/11/24 02:22:54;;;;;;;7.88;2.72;;;7.30;99.90;;;;;;6002618;23;20230;-75
2022/11/24 02:25:33;;;;;;;10.05;2.72;;;7.40;99.90;;;;;;6000047;23;20202;-74
2022/11/24 02:28:06;;;;;;;6.45;2.40;;;7.30;99.90;;;;;;6001170;23;20626;-74
2022/11/24 02:30:33;;;;;;;8.77;2.75;;;7.30;99.90;;;;;;6001615;23;20644;-74
2022/11/24 02:33:01;;;;;;;6.88;2.58;;;7.40;99.90;;;;;;6002001;23;20199;-74
2022/11/24 02:35:30;;;;;;;6.03;2.00;;;7.40;99.90;;;;;;6002508;23;20340;-75
2022/11/24 02:37:57;;;;;;;7.72;2.40;;;7.50;99.90;;;;;;5999921;23;20711;-74
2022/11/24 02:40:29;;;;;;;6.95;2.20;;;7.60;99.90;;;;;;6003258;23;20195;-74
2022/11/24 02:43:00;;;;;;;7.88;2.10;;;7.60;99.90;;;;;;6003078;23;20199;-75
2022/11/24 02:45:30;;;;;;;4.97;2.25;;;7.70;99.90;;;;;;6000707;23;20226;-75
2022/11/24 02:47:57;;;;;;;6.90;2.60;;;7.70;99.90;;;;;;5998190;23;20508;-74
2022/11/24 02:50:25;;;;;;;5.85;2.20;;;7.70;99.90;;;;;;6004673;23;20274;-74
2022/11/24 02:52:52;;;;;;;6.13;2.15;;;7.70;99.90;;;;;;6002469;23;20556;-75
2022/11/24 02:55:20;;;;;;;9.68;2.65;;;7.70;99.90;;;;;;6002943;23;20201;-74
2022/11/24 02:57:47;;;;;;;7.10;2.90;;;7.60;99.90;;;;;;6002924;23;20250;-74
2022/11/24 03:00:15;;;;;;;5.60;2.60;;;7.60;99.90;;;;;;6003227;23;20230;-74
2022/11/24 03:02:44;;;;;;;7.20;2.80;;;7.50;99.90;;;;;;5993682;23;20213;-74
2022/11/24 03:05:12;;;;;;;6.22;2.08;;;7.40;99.90;;;;;;6005477;23;20595;-74
2022/11/24 03:07:40;;;;;;;8.15;2.65;;;7.30;99.90;;;;;;6000881;23;20335;-74
2022/11/24 03:10:07;;;;;;;6.97;2.50;;;7.20;99.90;;;;;;6000673;23;20627;-75
2022/11/24 03:12:34;;;;;;;8.45;2.10;;;7.20;99.90;;;;;;6004298;23;20202;-74
2022/11/24 03:15:02;;;;;;;9.43;2.70;;;7.10;99.90;;;;;;6002965;23;20273;-74
2022/11/24 03:17:29;;;;;;;5.47;2.35;;;7.10;99.90;;;;;;6002785;23;20671;-74
2022/11/24 03:19:59;;;;;;;6.72;2.47;;;7.10;99.90;;;;;;6002654;23;20206;-74
2022/11/24 03:22:27;;;;;;;5.40;2.28;;;7.00;99.90;;;;;;6004440;23;20673;-74
2022/11/24 03:24:54;;;;;;;4.65;2.15;;;7.00;99.90;;;;;;5990417;23;20297;-74
2022/11/24 03:27:21;;;;;;;5.82;1.90;;;7.00;99.90;;;;;;5997712;23;20269;-75
2022/11/24 03:29:48;;;;;;;7.05;2.05;;;6.90;99.90;;;;;;5999365;23;20217;-74
2022/11/24 03:32:16;;;;;;;6.10;2.30;;;6.90;99.90;;;;;;6003354;23;20253;-74
2022/11/24 03:34:43;;;;;;;7.97;2.10;;;6.90;99.90;;;;;;6003096;23;20206;-74
2022/11/24 03:37:12;;;;;;;5.90;2.10;;;6.90;99.90;;;;;;5989854;23;20215;-75
2022/11/24 03:39:39;;;;;;;4.93;1.95;;;6.80;99.90;;;;;;6003108;23;20202;-74
2022/11/24 03:42:06;;;;;;;4.97;2.08;;;6.70;99.90;;;;;;6003932;23;20222;-74
2022/11/24 03:44:33;;;;;;;4.28;2.30;;;6.70;99.90;;;;;;6000489;23;20321;-74
2022/11/24 03:47:02;;;;;;;9.20;2.42;;;6.70;99.90;;;;;;5998941;23;20186;-74
2022/11/24 03:49:29;;;;;;;6.13;1.95;;;6.60;99.90;;;;;;6004414;23;20249;-75
2022/11/24 03:51:56;;;;;;;6.72;2.08;;;6.70;99.90;;;;;;6002628;23;20274;-74
2022/11/24 03:54:24;;;;;;;8.00;2.75;;;6.70;99.90;;;;;;6003285;23;20265;-74
2022/11/24 03:56:51;;;;;;;5.25;1.90;;;6.70;99.90;;;;;;6002934;23;20222;-74
2022/11/24 03:59:19;;;;;;;6.55;2.20;;;6.70;99.90;;;;;;6002773;23;20273;-74
2022/11/24 04:01:46;;;;;;;6.82;2.42;;;6.80;99.90;;;;;;6004900;23;20716;-74
2022/11/24 04:04:13;;;;;;;4.63;2.15;;;6.80;99.90;;;;;;6004057;23;20226;-74
2022/11/24 04:06:42;;;;;;;5.90;2.05;;;6.80;99.90;;;;;;6001962;23;20280;-74
2022/11/24 04:09:09;;;;;;;4.63;2.00;;;6.80;99.90;;;;;;6001503;23;20675;-74
2022/11/24 04:14:23;;;;;;;3.83;1.80;;;6.80;99.90;;;;;;6002197;23;20198;-74
2022/11/24 04:16:50;;;;;;;3.60;1.90;;;6.80;99.90;;;;;;6003907;23;20215;-74
2022/11/24 04:19:17;;;;;;;4.80;1.80;;;6.80;99.90;;;;;;6002969;23;20202;-74
2022/11/24 04:21:44;;;;;;;3.40;1.75;;;6.70;99.90;;;;;;6003730;23;20265;-74
2022/11/24 04:24:13;;;;;;;3.60;1.70;;;6.70;99.90;;;;;;6003974;23;20277;-74
2022/11/24 04:26:42;;;;;;;3.53;1.55;;;6.70;99.90;;;;;;6004888;23;20194;-74
2022/11/24 04:29:10;;;;;;;5.05;1.60;;;6.70;99.90;;;;;;6003347;23;20249;-74
2022/11/24 04:31:36;;;;;;;6.07;1.80;;;6.70;99.90;;;;;;6003599;23;20194;-74
2022/11/24 04:34:05;;;;;;;4.68;1.95;;;6.70;99.90;;;;;;6004613;23;20201;-74
2022/11/24 04:36:33;;;;;;;3.70;1.60;;;6.70;99.90;;;;;;6005123;23;20297;-74
2022/11/24 04:39:00;;;;;;;5.18;1.80;;;6.70;99.90;;;;;;6003905;23;20256;-74
2022/11/24 04:41:27;;;;;;;4.30;2.08;;;6.70;99.90;;;;;;6002645;23;20322;-74
2022/11/24 04:43:57;;;;;;;4.30;1.50;;;6.70;99.90;;;;;;6003212;23;20252;-74
2022/11/24 04:46:24;;;;;;;5.57;2.15;;;6.70;99.90;;;;;;6003820;23;20230;-74
2022/11/24 04:48:51;;;;;;;3.40;1.85;;;6.70;99.90;;;;;;6004693;23;20209;-74
2022/11/24 04:51:18;;;;;;;4.88;2.13;;;6.70;99.90;;;;;;5999125;23;20715;-74
2022/11/24 04:53:47;;;;;;;5.10;2.00;;;6.80;99.90;;;;;;6002160;23;20288;-74
2022/11/24 04:56:15;;;;;;;2.22;1.55;;;6.80;99.90;;;;;;6001965;23;20256;-74
2022/11/24 04:58:43;;;;;;;4.85;2.13;;;6.80;99.90;;;;;;6003818;23;20201;-74
2022/11/24 05:01:12;;;;;;;5.90;1.90;;;6.70;99.90;;;;;;6002156;23;20272;-74
2022/11/24 05:03:40;;;;;;;6.60;2.30;;;6.70;99.90;;;;;;6003429;23;20205;-74
2022/11/24 05:06:08;;;;;;;4.22;2.65;;;6.60;99.90;;;;;;6002511;23;20287;-74
2022/11/24 05:08:36;;;;;;;7.40;2.60;;;6.60;99.90;;;;;;6003378;23;20298;-74
2022/11/24 05:11:04;;;;;;;7.30;2.55;;;6.50;99.90;;;;;;5989358;23;20217;-75
2022/11/24 05:13:33;;;;;;;3.17;2.40;;;6.50;99.90;;;;;;6000228;23;20197;-74
2022/11/24 05:16:01;;;;;;;10.35;3.05;;;6.50;99.90;;;;;;5988451;23;20253;-74
2022/11/24 05:18:30;;;;;;;7.35;2.80;;;6.50;99.90;;;;;;6000693;23;20647;-74
2022/11/24 05:20:58;;;;;;;6.90;2.90;;;6.50;99.90;;;;;;6000326;23;20589;-74
2022/11/24 05:23:26;;;;;;;6.07;2.55;;;6.50;99.90;;;;;;6000153;23;20285;-74
2022/11/24 05:25:54;;;;;;;5.32;2.90;;;6.50;99.90;;;;;;5998223;23;20190;-74
2022/11/24 05:28:21;;;;;;;6.38;2.75;;;6.50;99.90;;;;;;6002050;23;20202;-74
2022/11/24 05:30:48;;;;;;;7.25;3.33;;;6.50;99.90;;;;;;6001495;23;20202;-74
2022/11/24 05:33:17;;;;;;;5.07;2.17;;;6.50;99.90;;;;;;6003658;23;20198;-74
2022/11/24 05:35:47;;;;;;;7.03;2.60;;;6.50;99.90;;;;;;6000706;23;20258;-75
2022/11/24 05:38:15;;;;;;;5.05;2.80;;;6.50;99.90;;;;;;5992339;23;20249;-74
2022/11/24 05:40:46;;;;;;;5.57;2.65;;;6.50;99.90;;;;;;6012376;23;20197;-78
2022/11/24 05:43:15;;;;;;;8.30;2.60;;;6.50;99.90;;;;;;6018299;23;20189;-78
2022/11/24 05:45:42;;;;;;;5.13;2.28;;;6.60;99.90;;;;;;6009627;23;20217;-78
2022/11/24 05:48:12;;;;;;;8.18;2.45;;;6.70;99.90;;;;;;6010794;23;20576;-77
2022/11/24 05:50:40;;;;;;;7.43;2.20;;;6.80;99.90;;;;;;6003745;23;20699;-73
2022/11/24 05:53:13;;;;;;;6.85;2.17;;;6.80;99.90;;;;;;6003222;23;20216;-74
2022/11/24 05:55:42;;;;;;;9.82;2.40;;;6.80;99.90;;;;;;5999812;23;20190;-74
2022/11/24 05:58:10;;;;;;;5.95;2.60;;;6.80;99.90;;;;;;6003144;23;20225;-74
2022/11/24 06:00:37;;;;;;;5.22;2.53;;;6.70;99.90;;;;;;6000065;23;20327;-74
2022/11/24 06:03:04;;;;;;;7.72;2.60;;;6.70;99.90;;;;;;6001555;23;20205;-74
2022/11/24 06:05:32;;;;;;;8.30;2.85;;;6.70;99.90;;;;;;6002690;23;20256;-74
2022/11/24 06:08:00;;;;;;;5.93;2.40;;;6.60;99.90;;;;;;6002217;23;20636;-75
2022/11/24 06:10:29;;;;;;;3.33;2.30;;;6.60;99.90;;;;;;6000040;23;20198;-74
2022/11/24 06:12:56;;;;;;;6.13;2.50;;;6.60;99.90;;;;;;6001946;23;20202;-74
2022/11/24 06:15:23;;;;;;;6.93;2.25;;;6.60;99.90;;;;;;6003861;23;20645;-74
2022/11/24 06:17:54;;;;;;;5.97;2.47;;;6.60;99.90;;;;;;6006106;23;20325;-74
2022/11/24 06:20:22;;;;;;;7.03;2.33;;;6.60;99.90;;;;;;5999584;23;20194;-74
2022/11/24 06:22:49;;;;;;;5.80;2.58;;;6.60;99.90;;;;;;6003150;23;20191;-74
2022/11/24 06:25:17;;;;;;;10.10;2.50;;;6.60;99.90;;;;;;6004317;23;20277;-74
2022/11/24 06:27:46;;;;;;;7.07;2.30;;;6.60;99.90;;;;;;6001758;23;20576;-74
2022/11/24 06:30:15;;;;;;;6.25;2.50;;;6.60;99.90;;;;;;6003661;23;20206;-74
2022/11/24 06:32:43;;;;;;;6.43;2.20;;;6.60;99.90;;;;;;6004179;23;20284;-74
2022/11/24 06:35:12;;;;;;;5.70;2.42;;;6.70;99.90;;;;;;6005971;23;20195;-74
2022/11/24 06:37:39;;;;;;;8.60;3.17;;;6.70;99.90;;;;;;6025483;23;20771;-74
2022/11/24 06:40:08;;;;;;;9.93;3.10;;;6.70;99.90;;;;;;6002884;23;20194;-74
2022/11/24 06:42:36;;;;;;;8.07;2.42;;;6.80;99.90;;;;;;6005290;23;20198;-75
2022/11/24 06:45:06;;;;;;;8.73;2.78;;;6.80;99.90;;;;;;6004486;23;20559;-75
2022/11/24 06:47:34;;;;;;;5.65;2.40;;;6.80;99.90;;;;;;6008574;23;20186;-75
2022/11/24 06:50:02;;;;;;;7.38;3.08;;;6.80;99.90;;;;;;6003276;23;20190;-75
2022/11/24 06:52:29;;;;;;;7.35;2.40;;;6.80;99.90;;;;;;6007524;23;20263;-75
2022/11/24 06:54:57;;;;;;;7.07;3.00;;;6.90;99.90;;;;;;6005658;23;20197;-74
2022/11/24 06:57:25;;;;;;;5.90;2.97;;;6.90;99.90;;;;;;6016375;23;20216;-75
2022/11/24 06:59:52;;;;;;;8.98;2.42;;;6.90;99.90;;;;;;6009926;23;20398;-75
2022/11/24 07:02:21;;;;;;;9.13;1.92;;;7.00;99.90;;;;;;6004707;23;20273;-75
2022/11/24 07:04:48;;;;;;;5.05;2.08;;;7.00;99.90;;;;;;5998554;23;20191;-74
2022/11/24 07:07:16;;;;;;;6.20;2.25;;;7.00;99.90;;;;;;5998946;23;20191;-75
2022/11/24 07:09:43;;;;;;;7.32;2.50;;;7.10;99.90;;;;;;6016986;23;20197;-75
2022/11/24 07:12:10;;;;;;;11.95;2.33;;;7.10;99.90;;;;;;6023742;23;20195;-75
2022/11/24 07:14:37;;;;;;;7.18;2.58;;;7.20;99.90;;;;;;6004419;23;20207;-75
2022/11/24 07:17:06;;;;;;;9.82;3.08;;;7.20;99.90;;;;;;6017767;23;20201;-75
2022/11/24 07:19:34;;;;;;;8.65;2.88;;;7.30;99.90;;;;;;6020047;23;20275;-75
2022/11/24 07:22:02;;;;;;;8.55;2.60;;;7.30;99.90;;;;;;6022961;23;20277;-75
2022/11/24 07:24:30;;;;;;;7.30;2.92;;;7.30;99.90;;;;;;6017109;23;20191;-75
2022/11/24 07:26:57;;;;;;;6.70;2.30;;;7.40;99.90;;;;;;6004407;23;20305;-75
2022/11/24 07:29:24;;;;;;;7.03;2.53;;;7.40;99.90;;;;;;6004441;23;20189;-75
2022/11/24 07:31:52;;;;;;;7.78;2.80;;;7.50;99.90;;;;;;6004511;23;20381;-75
2022/11/24 07:34:19;;;;;;;6.70;2.60;;;7.60;99.90;;;;;;5986520;23;20274;-75
2022/11/24 07:36:48;;;;;;;6.57;2.53;;;7.60;99.90;;;;;;5997807;23;20192;-75
2022/11/24 07:39:16;;;;;;;8.75;1.95;;;7.70;99.90;;;;;;6005554;23;20204;-75
2022/11/24 07:41:43;;;;;;;6.45;2.03;;;7.70;99.90;;;;;;6025835;23;20190;-74
2022/11/24 07:44:10;;;;;;;7.10;2.72;;;7.70;99.90;;;;;;6029208;23;20272;-74
2022/11/24 07:46:38;;;;;;;9.40;2.67;;;7.70;99.90;;;;;;6014581;23;20758;-74
2022/11/24 07:49:05;;;;;;;10.43;2.30;;;7.60;99.90;;;;;;6008874;23;20620;-75
2022/11/24 07:51:35;;;;;;;10.48;2.38;;;7.60;99.90;;;;;;5999238;23;20225;-73
2022/11/24 07:54:04;;;;;;;7.88;1.80;;;7.60;99.90;;;;;;5997341;23;20323;-73
2022/11/24 07:56:31;;;;;;;6.45;2.58;;;7.60;99.90;;;;;;6002758;23;20235;-73
2022/11/24 07:58:59;;;;;;;7.68;2.20;;;7.60;99.90;;;;;;6020472;23;20523;-73
2022/11/24 08:01:27;;;;;;;7.28;2.40;;;7.50;99.90;;;;;;6004114;23;20247;-73
2022/11/24 08:03:54;;;;;;;7.38;2.45;;;7.50;99.90;;;;;;6014892;23;20203;-73
2022/11/24 08:06:21;;;;;;;5.50;2.15;;;7.50;99.90;;;;;;6005151;23;20574;-73
2022/11/24 08:08:50;;;;;;;8.02;2.15;;;7.50;99.90;;;;;;6005034;23;20206;-73
2022/11/24 08:11:19;;;;;;;8.07;2.40;;;7.50;99.90;;;;;;6032874;23;20632;-73
2022/11/24 08:13:46;;;;;;;6.85;1.90;;;7.50;99.90;;;;;;6025277;23;20213;-74
2022/11/24 08:16:15;;;;;;;4.70;1.40;;;7.50;99.90;;;;;;6028027;23;20191;-74
2022/11/24 08:18:44;;;;;;;4.10;1.52;;;7.50;99.90;;;;;;5984396;23;20295;-74
2022/11/24 08:21:14;;;;;;;6.18;1.90;;;7.50;99.90;;;;;;6011355;23;20222;-74
2022/11/24 08:23:44;;;;;;;5.18;1.95;;;7.50;99.90;;;;;;6004410;23;20325;-74
2022/11/24 08:26:16;;;;;;;4.93;1.73;;;7.50;99.90;;;;;;6004973;23;20193;-74
2022/11/24 08:28:46;;;;;;;4.07;1.88;;;7.60;99.90;;;;;;5999769;23;20186;-74
2022/11/24 08:31:15;;;;;;;4.60;1.73;;;7.60;99.90;;;;;;6004306;23;20219;-74
2022/11/24 08:33:43;;;;;;;6.18;2.10;;;7.60;99.90;;;;;;6003748;23;20196;-74
2022/11/24 08:36:13;;;;;;;3.80;1.40;;;7.60;99.90;;;;;;5995948;23;20222;-73
2022/11/24 08:38:40;;;;;;;3.08;1.50;;;7.60;99.90;;;;;;6004824;23;20209;-74
2022/11/24 08:41:09;;;;;;;3.55;1.40;;;7.60;99.90;;;;;;6016855;23;20187;-74
2022/11/24 08:43:37;;;;;;;3.13;1.60;;;7.60;99.90;;;;;;6004287;23;20190;-74
2022/11/24 08:46:08;;;;;;;3.10;1.50;;;7.70;99.90;;;;;;6003271;23;20222;-74
2022/11/24 08:48:36;;;;;;;4.15;1.55;;;7.70;99.90;;;;;;6004949;23;21296;-74
2022/11/24 08:51:09;;;;;;;2.22;1.40;;;7.70;99.90;;;;;;6004463;23;20271;-74
2022/11/24 08:53:37;;;;;;;1.23;0.85;;;7.80;99.90;;;;;;6002383;23;20274;-74
2022/11/24 08:56:05;;;;;;;5.00;1.50;;;7.80;99.90;;;;;;6024349;23;20573;-74
2022/11/24 08:58:33;;;;;;;2.75;0.95;;;7.80;99.90;;;;;;6003929;23;20285;-75
2022/11/24 09:01:06;;;;;;;1.50;1.02;;;7.80;99.90;;;;;;6003840;23;20605;-74
2022/11/24 09:03:36;;;;;;;1.10;0.80;;;7.70;99.90;;;;;;6005705;23;20215;-74
2022/11/24 09:06:04;;;;;;;2.20;0.90;;;7.70;99.90;;;;;;6015564;23;20187;-75
2022/11/24 09:08:32;;;;;;;2.60;1.00;;;7.70;99.90;;;;;;6004416;23;20223;-74
2022/11/24 09:11:00;;;;;;;1.10;0.70;;;7.70;99.90;;;;;;6010751;23;20561;-75
2022/11/24 09:13:27;;;;;;;1.63;0.82;;;7.80;99.90;;;;;;6004587;23;20242;-75
2022/11/24 09:15:55;;;;;;;0.90;0.70;;;7.70;99.90;;;;;;6004221;23;20185;-75
2022/11/24 09:18:24;;;;;;;2.70;0.88;;;7.80;99.90;;;;;;6001080;23;20296;-75
2022/11/24 09:20:52;;;;;;;1.95;0.80;;;7.80;99.90;;;;;;6010384;23;20261;-75
2022/11/24 09:23:19;;;;;;;1.05;0.88;;;7.80;99.90;;;;;;6008679;23;20187;-75
2022/11/24 09:25:46;;;;;;;1.42;0.77;;;7.90;99.90;;;;;;6003733;23;20560;-75
2022/11/24 09:28:13;;;;;;;1.15;0.90;;;8.00;99.90;;;;;;6002816;23;20640;-74
2022/11/24 09:30:41;;;;;;;2.03;0.80;;;8.10;99.90;;;;;;6005335;23;20203;-75
2022/11/24 09:33:08;;;;;;;2.30;0.93;;;8.10;99.90;;;;;;6025494;23;20191;-75
2022/11/24 09:35:38;;;;;;;0.95;0.70;;;8.20;99.90;;;;;;6004726;23;20567;-75
2022/11/24 09:38:05;;;;;;;0.70;0.60;;;8.20;99.90;;;;;;6005741;23;20211;-75
2022/11/24 09:40:33;;;;;;;1.00;0.60;;;8.20;99.90;;;;;;6021290;23;20547;-75
2022/11/24 09:43:11;;;;;;;1.80;0.60;;;8.30;99.90;;;;;;6011643;23;20568;-74
2022/11/24 09:45:48;;;;;;;1.70;0.60;;;8.30;99.90;;;;;;6016193;23;20610;-75
2022/11/24 09:48:22;;;;;;;0.82;0.60;;;8.40;99.90;;;;;;6004424;23;20268;-75
2022/11/24 09:50:53;;;;;;;1.70;0.80;;;8.40;99.90;;;;;;6013918;23;20274;-74
2022/11/24 09:53:29;;;;;;;0.70;0.60;;;8.40;99.90;;;;;;6004495;23;20203;-75
2022/11/24 09:56:01;;;;;;;1.33;0.60;;;8.40;99.90;;;;;;5992757;23;20366;-74
2022/11/24 09:58:37;;;;;;;1.77;0.70;;;8.40;99.90;;;;;;6004321;23;20283;-74
2022/11/24 10:01:07;;;;;;;1.20;0.70;;;8.40;99.90;;;;;;6005875;23;20208;-74
2022/11/24 10:03:40;;;;;;;0.93;0.60;;;8.40;99.90;;;;;;6004877;23;20601;-75
2022/11/24 10:06:21;;;;;;;1.10;0.77;;;8.40;99.90;;;;;;6004532;23;20621;-75
2022/11/24 10:09:07;;;;;;;0.85;0.75;;;8.40;99.90;;;;;;6017976;23;20670;-75
2022/11/24 10:11:39;;;;;;;0.75;0.70;;;8.40;99.90;;;;;;5994172;23;20301;-75
2022/11/24 10:14:38;;;;;;;1.90;0.80;;;8.50;99.90;;;;;;6006611;23;20230;-75
2022/11/24 10:17:18;;;;;;;1.00;0.80;;;8.50;99.90;;;;;;6005791;23;20198;-74
2022/11/24 10:19:51;;;;;;;0.68;0.60;;;8.60;99.90;;;;;;6024026;23;20212;-75
2022/11/24 10:22:34;;;;;;;1.75;0.80;;;8.70;99.90;;;;;;6017432;23;20279;-74
2022/11/24 10:25:11;;;;;;;0.88;0.68;;;9.20;99.90;;;;;;6016665;23;20208;-75
2022/11/24 10:27:43;;;;;;;0.90;0.68;;;9.60;99.90;;;;;;5993102;23;20632;-75
2022/11/24 10:30:16;;;;;;;1.30;0.70;;;9.90;99.90;;;;;;6005646;23;20243;-75
2022/11/24 10:32:47;;;;;;;1.65;1.00;;;10.00;99.90;;;;;;6020296;23;20189;-75
2022/11/24 10:35:19;;;;;;;0.70;0.68;;;10.00;99.90;;;;;;6002737;23;20631;-75
2022/11/24 10:37:59;;;;;;;1.58;0.70;;;9.80;99.90;;;;;;6005529;23;20283;-75
2022/11/24 10:40:35;;;;;;;1.83;0.70;;;9.70;99.90;;;;;;6005165;23;20190;-76
2022/11/24 10:43:04;;;;;;;1.83;0.80;;;9.60;99.90;;;;;;6000755;23;20189;-75
2022/11/24 10:45:32;;;;;;;1.00;0.70;;;9.60;99.90;;;;;;6004413;23;20217;-75
2022/11/24 10:47:59;;;;;;;0.70;0.50;;;9.70;99.90;;;;;;6007890;23;20229;-75
2022/11/24 10:50:31;;;;;;;1.45;0.90;;;9.70;99.90;;;;;;6033770;23;20196;-75
2022/11/24 10:53:06;;;;;;;2.55;0.80;;;9.80;99.90;;;;;;6008697;23;20273;-76
2022/11/24 10:56:10;;;;;;;1.42;0.77;;;9.80;99.90;;;;;;6009123;23;20685;-75
2022/11/24 10:58:39;;;;;;;1.50;0.90;;;9.90;99.90;;;;;;5996576;23;20214;-75
2022/11/24 11:01:30;;;;;;;1.15;0.70;;;10.10;99.90;;;;;;6005231;23;20277;-76
2022/11/24 11:04:00;;;;;;;0.98;0.70;;;10.20;99.90;;;;;;6003550;23;20589;-75
2022/11/24 11:06:29;;;;;;;0.90;0.60;;;10.20;99.90;;;;;;6005367;23;20547;-75
2022/11/24 11:09:18;;;;;;;1.50;0.85;;;10.00;99.90;;;;;;6005446;23;20212;-75
2022/11/24 11:11:47;;;;;;;0.90;0.80;;;10.10;99.90;;;;;;6004539;23;20224;-75
2022/11/24 11:14:30;;;;;;;1.33;0.88;;;9.90;99.90;;;;;;6003357;23;20559;-75
2022/11/24 11:16:59;;;;;;;1.20;0.80;;;9.80;99.90;;;;;;5993474;23;20203;-75
2022/11/24 11:19:35;;;;;;;2.08;1.10;;;9.70;99.90;;;;;;6007372;23;20215;-75
2022/11/24 11:22:12;;;;;;;2.15;0.80;;;9.70;99.90;;;;;;6005212;23;20319;-75
2022/11/24 11:24:43;;;;;;;1.33;1.00;;;9.70;99.90;;;;;;6007776;23;20198;-75
2022/11/24 11:27:18;;;;;;;2.38;1.10;;;9.70;99.90;;;;;;6011694;23;20190;-75
2022/11/24 11:29:45;;;;;;;1.20;0.90;;;9.70;99.90;;;;;;6013919;23;20614;-75
2022/11/24 11:32:18;;;;;;;2.33;0.82;;;9.70;99.90;;;;;;6007722;23;20624;-75
2022/11/24 11:34:46;;;;;;;1.95;1.20;;;9.80;99.90;;;;;;5997265;23;20546;-75
2022/11/24 11:37:15;;;;;;;2.17;0.90;;;9.80;99.90;;;;;;6017883;23;20197;-75
2022/11/24 11:39:47;;;;;;;1.75;1.00;;;9.80;99.90;;;;;;6014467;23;20255;-76
2022/11/24 11:42:19;;;;;;;1.85;1.15;;;9.90;99.90;;;;;;6009017;23;20696;-75
2022/11/24 11:44:51;;;;;;;2.40;1.23;;;9.90;99.90;;;;;;6012415;23;20244;-74
2022/11/24 11:47:25;;;;;;;1.77;1.13;;;10.00;99.90;;;;;;6013101;23;20217;-75
2022/11/24 11:49:52;;;;;;;2.30;1.20;;;10.10;99.90;;;;;;6007412;23;20544;-75
2022/11/24 11:52:55;;;;;;;3.10;1.23;;;10.20;99.90;;;;;;6005927;23;20810;-75
2022/11/24 11:55:48;;;;;;;3.55;1.60;;;10.40;99.90;;;;;;6013107;23;20197;-75
2022/11/24 11:58:37;;;;;;;3.70;1.35;;;10.70;99.90;;;;;;6012263;23;20197;-75
2022/11/24 12:01:19;;;;;;;2.72;1.45;;;11.10;99.90;;;;;;6006938;23;20190;-75
2022/11/24 12:03:57;;;;;;;5.65;1.77;;;11.30;99.90;;;;;;5999000;23;20269;-75
2022/11/24 12:06:43;;;;;;;3.55;1.30;;;11.40;99.90;;;;;;6005152;23;20205;-75
2022/11/24 12:09:21;;;;;;;3.55;1.48;;;11.30;99.90;;;;;;6010924;23;20702;-75
2022/11/24 12:12:03;;;;;;;6.28;1.90;;;11.20;99.90;;;;;;6003386;23;20276;-75
2022/11/24 12:14:38;;;;;;;4.60;1.92;;;11.20;99.90;;;;;;6012880;23;20264;-75
2022/11/24 12:17:13;;;;;;;7.18;2.17;;;11.10;99.90;;;;;;6009514;23;20288;-75
2022/11/24 12:20:00;;;;;;;4.88;2.00;;;11.10;99.90;;;;;;6003699;23;20296;-75
2022/11/24 12:22:38;;;;;;;4.93;1.88;;;11.40;99.90;;;;;;6023525;23;20222;-75
2022/11/24 12:25:21;;;;;;;4.47;2.03;;;12.00;99.90;;;;;;5997640;23;20313;-75
2022/11/24 12:28:02;;;;;;;5.82;2.05;;;12.20;99.90;;;;;;6005068;23;20205;-76
2022/11/24 12:30:38;;;;;;;6.68;2.15;;;12.30;99.90;;;;;;6004947;23;20222;-76
2022/11/24 12:33:29;;;;;;;5.72;2.30;;;12.10;99.90;;;;;;6002155;23;20201;-75
2022/11/24 12:36:03;;;;;;;6.78;2.00;;;11.80;99.90;;;;;;5975609;23;20291;-75
2022/11/24 12:38:40;;;;;;;5.45;1.90;;;11.60;99.90;;;;;;6018523;23;20192;-75
2022/11/24 12:41:21;;;;;;;3.13;1.50;;;11.40;99.90;;;;;;6015370;23;20194;-75
2022/11/24 12:43:52;;;;;;;5.72;1.70;;;11.20;99.90;;;;;;6007570;23;20556;-75
2022/11/24 12:46:28;;;;;;;4.50;2.20;;;11.10;99.90;;;;;;6007161;23;20223;-75
2022/11/24 12:49:07;;;;;;;8.73;1.73;;;11.00;99.90;;;;;;6022466;23;20186;-75
2022/11/24 12:51:39;;;;;;;10.70;1.98;;;10.90;99.90;;;;;;6013871;23;20228;-75
2022/11/24 12:54:12;;;;;;;8.75;2.10;;;10.70;99.90;;;;;;6007159;23;20256;-75
2022/11/24 12:56:47;;;;;;;6.82;1.73;;;10.60;99.90;;;;;;6025309;23;20537;-75
2022/11/24 12:59:27;;;;;;;4.18;1.98;;;10.60;99.90;;;;;;6020660;23;20352;-75
2022/11/24 13:02:04;;;;;;;7.18;1.70;;;10.60;99.90;;;;;;6019264;23;20235;-75
2022/11/24 13:04:38;;;;;;;4.97;1.80;;;10.60;99.90;;;;;;6012238;23;20197;-75
2022/11/24 13:07:11;;;;;;;6.05;1.67;;;10.60;99.90;;;;;;6005433;23;20244;-75
2022/11/24 13:09:38;;;;;;;6.80;1.95;;;10.70;99.90;;;;;;5999968;23;20225;-75
2022/11/24 13:12:11;;;;;;;6.82;1.70;;;10.80;99.90;;;;;;6004328;23;20690;-75
2022/11/24 13:14:43;;;;;;;4.00;1.45;;;10.80;99.90;;;;;;6004855;23;20233;-74